createdAt,value
2022-08-20T00:02:13.214Z,40.80
2022-08-20T00:04:42.392Z,39.10
2022-08-20T00:07:10.302Z,37.53
2022-08-20T00:09:38.303Z,35.43
2022-08-20T00:12:07.151Z,34.53
2022-08-20T00:14:35.741Z,35.07
2022-08-20T00:17:04.070Z,31.40
2022-08-20T00:19:32.242Z,34.13
2022-08-20T00:22:01.494Z,32.87
2022-08-20T00:24:29.306Z,31.90
2022-08-20T00:26:57.203Z,29.73
2022-08-20T00:29:25.094Z,29.93
2022-08-20T00:31:53.018Z,33.00
2022-08-20T00:34:20.878Z,33.17
2022-08-20T00:36:48.882Z,31.00
2022-08-20T00:39:18.065Z,32.00
2022-08-20T00:41:45.993Z,30.13
2022-08-20T00:44:16.815Z,26.57
2022-08-20T00:46:46.176Z,29.47
2022-08-20T00:49:18.406Z,29.40
2022-08-20T00:51:50.053Z,31.90
2022-08-20T00:54:23.851Z,31.03
2022-08-20T00:56:57.121Z,28.57
2022-08-20T00:59:29.613Z,32.40
2022-08-20T01:01:58.518Z,31.23
2022-08-20T01:04:27.663Z,30.20
2022-08-20T01:06:55.638Z,30.93
2022-08-20T01:09:49.754Z,29.40
2022-08-20T01:12:15.579Z,30.10
2022-08-20T01:14:46.370Z,27.57
2022-08-20T01:17:18.499Z,30.87
2022-08-20T01:19:53.192Z,31.23
2022-08-20T01:22:46.448Z,28.80
2022-08-20T01:25:23.928Z,30.07
2022-08-20T01:27:55.647Z,30.70
2022-08-20T01:30:27.509Z,27.67
2022-08-20T01:32:55.838Z,29.40
2022-08-20T01:35:25.875Z,30.93
2022-08-20T01:37:53.863Z,28.43
2022-08-20T01:40:30.182Z,26.30
2022-08-20T01:42:59.904Z,27.10
2022-08-20T01:45:30.456Z,26.43
2022-08-20T01:47:59.604Z,26.90
2022-08-20T01:50:31.642Z,26.07
2022-08-20T01:53:05.310Z,24.40
2022-08-20T01:55:33.298Z,25.93
2022-08-20T01:58:03.153Z,22.37
2022-08-20T02:00:32.487Z,24.70
2022-08-20T02:03:00.283Z,23.93
2022-08-20T02:05:30.665Z,22.53
2022-08-20T02:07:59.208Z,21.77
2022-08-20T02:10:28.360Z,21.50
2022-08-20T02:13:00.091Z,24.07
2022-08-20T02:15:34.737Z,22.37
2022-08-20T02:18:05.658Z,22.10
2022-08-20T02:20:37.286Z,22.93
2022-08-20T02:23:07.239Z,20.93
2022-08-20T02:25:37.865Z,22.00
2022-08-20T02:28:17.433Z,20.77
2022-08-20T02:30:48.948Z,21.27
2022-08-20T02:33:19.235Z,19.87
2022-08-20T02:35:49.275Z,19.83
2022-08-20T02:38:17.737Z,19.93
2022-08-20T02:40:49.103Z,20.83
2022-08-20T02:43:18.257Z,17.90
2022-08-20T02:45:47.582Z,18.70
2022-08-20T02:48:22.918Z,18.00
2022-08-20T02:50:53.821Z,18.70
2022-08-20T02:53:22.631Z,18.83
2022-08-20T02:55:51.051Z,17.10
2022-08-20T02:58:19.842Z,16.93
2022-08-20T03:00:49.674Z,15.60
2022-08-20T03:03:22.333Z,17.27
2022-08-20T03:05:52.109Z,15.70
2022-08-20T03:08:20.419Z,16.27
2022-08-20T03:10:48.794Z,14.90
2022-08-20T03:13:17.206Z,13.87
2022-08-20T03:15:48.586Z,14.23
2022-08-20T03:18:19.669Z,16.87
2022-08-20T03:20:52.131Z,15.63
2022-08-20T03:23:21.852Z,15.43
2022-08-20T03:25:50.013Z,14.73
2022-08-20T03:28:18.870Z,15.23
2022-08-20T03:30:47.014Z,15.93
2022-08-20T03:33:16.125Z,14.70
2022-08-20T03:35:45.313Z,15.00
2022-08-20T03:38:14.654Z,13.83
2022-08-20T03:40:42.975Z,15.40
2022-08-20T03:43:11.462Z,14.10
2022-08-20T03:45:41.269Z,14.70
2022-08-20T03:48:11.210Z,14.87
2022-08-20T03:50:42.409Z,17.57
2022-08-20T03:53:14.637Z,15.47
2022-08-20T03:55:45.320Z,14.57
2022-08-20T03:58:15.078Z,15.43
2022-08-20T04:00:49.786Z,15.03
2022-08-20T04:03:18.321Z,15.30
2022-08-20T04:05:47.086Z,16.73
2022-08-20T04:08:19.296Z,16.13
2022-08-20T04:10:48.252Z,17.47
2022-08-20T04:13:17.448Z,16.77
2022-08-20T04:15:46.246Z,19.93
2022-08-20T04:18:20.278Z,18.77
2022-08-20T04:20:48.861Z,20.43
2022-08-20T04:23:18.055Z,18.23
2022-08-20T04:25:46.973Z,22.10
2022-08-20T04:28:17.100Z,19.90
2022-08-20T04:30:51.687Z,21.23
2022-08-20T04:33:19.918Z,22.03
2022-08-20T04:36:02.740Z,22.90
2022-08-20T04:38:48.516Z,25.40
2022-08-20T04:41:22.621Z,22.07
2022-08-20T04:43:52.943Z,23.30
2022-08-20T04:46:22.379Z,26.23
2022-08-20T04:48:50.625Z,25.23
2022-08-20T04:51:22.702Z,26.37
2022-08-20T04:53:54.333Z,25.10
2022-08-20T04:56:24.288Z,24.97
2022-08-20T04:58:53.332Z,24.70
2022-08-20T05:01:21.728Z,26.60
2022-08-20T05:03:49.783Z,28.20
2022-08-20T05:06:18.681Z,25.90
2022-08-20T05:08:46.717Z,28.23
2022-08-20T05:11:34.254Z,24.73
2022-08-20T05:14:05.156Z,25.23
2022-08-20T05:16:37.727Z,24.37
2022-08-20T05:19:06.495Z,29.63
2022-08-20T05:21:34.314Z,28.47
2022-08-20T05:24:02.827Z,25.80
2022-08-20T05:26:33.241Z,25.83
2022-08-20T05:29:01.108Z,25.40
2022-08-20T05:31:31.755Z,29.70
2022-08-20T05:34:01.038Z,29.53
2022-08-20T05:36:29.005Z,29.13
2022-08-20T05:38:56.880Z,29.33
2022-08-20T05:41:28.757Z,25.97
2022-08-20T05:44:01.780Z,25.83
2022-08-20T05:46:32.133Z,28.63
2022-08-20T05:49:01.237Z,31.40
2022-08-20T05:51:29.184Z,34.13
2022-08-20T05:53:57.981Z,30.77
2022-08-20T05:56:30.097Z,29.93
2022-08-20T05:59:01.326Z,31.50
2022-08-20T06:01:29.827Z,30.30
2022-08-20T06:04:15.239Z,29.70
2022-08-20T06:06:45.250Z,28.67
2022-08-20T06:09:15.263Z,27.30
2022-08-20T06:11:43.155Z,28.87
2022-08-20T06:14:12.382Z,27.23
2022-08-20T06:16:40.274Z,25.13
2022-08-20T06:19:26.307Z,27.87
2022-08-20T06:21:54.635Z,23.67
2022-08-20T06:24:22.670Z,27.57
2022-08-20T06:26:56.869Z,27.17
2022-08-20T06:29:26.489Z,24.17
2022-08-20T06:31:54.423Z,26.90
2022-08-20T06:34:22.427Z,23.77
2022-08-20T06:36:50.272Z,23.37
2022-08-20T06:39:18.196Z,22.27
2022-08-20T06:41:46.096Z,23.13
2022-08-20T06:44:14.673Z,23.93
2022-08-20T06:46:45.320Z,25.23
2022-08-20T06:49:13.242Z,24.23
2022-08-20T06:51:41.467Z,23.60
2022-08-20T06:54:09.535Z,21.40
2022-08-20T06:56:37.561Z,22.07
2022-08-20T06:59:05.492Z,22.23
2022-08-20T07:01:33.479Z,20.53
2022-08-20T07:04:02.962Z,21.20
2022-08-20T07:06:31.067Z,21.10
2022-08-20T07:08:59.044Z,21.20
2022-08-20T07:11:28.478Z,20.23
2022-08-20T07:13:58.083Z,21.77
2022-08-20T07:16:26.261Z,18.70
2022-08-20T07:18:54.113Z,22.73
2022-08-20T07:21:23.263Z,21.57
2022-08-20T07:23:51.206Z,19.53
2022-08-20T07:26:19.122Z,21.53
2022-08-20T07:28:47.578Z,19.50
2022-08-20T07:31:33.189Z,18.60
2022-08-20T07:34:03.065Z,16.87
2022-08-20T07:36:32.785Z,18.17
2022-08-20T07:39:05.825Z,16.77
2022-08-20T07:41:34.753Z,18.47
2022-08-20T07:44:02.811Z,16.73
2022-08-20T07:46:31.718Z,16.97
2022-08-20T07:49:00.077Z,16.17
2022-08-20T07:51:28.484Z,16.27
2022-08-20T07:53:59.982Z,15.63
2022-08-20T07:56:28.137Z,15.60
2022-08-20T07:59:01.516Z,15.83
2022-08-20T08:01:32.405Z,16.73
2022-08-20T08:04:01.125Z,15.87
2022-08-20T08:06:31.359Z,19.87
2022-08-20T08:09:10.588Z,14.53
2022-08-20T08:11:46.952Z,12.43
2022-08-20T08:14:15.585Z,10.17
2022-08-20T08:16:45.543Z,9.40
2022-08-20T08:19:16.665Z,6.07
2022-08-20T08:21:45.238Z,7.63
2022-08-20T08:24:20.263Z,6.00
2022-08-20T08:26:50.671Z,5.97
2022-08-20T08:29:18.644Z,6.57
2022-08-20T08:31:46.560Z,4.47
2022-08-20T08:34:14.728Z,6.93
2022-08-20T08:36:44.185Z,7.40
2022-08-20T08:39:12.169Z,9.33
2022-08-20T08:41:49.429Z,5.40
2022-08-20T08:44:24.009Z,4.07
2022-08-20T08:46:57.986Z,6.33
2022-08-20T08:49:37.279Z,4.90
2022-08-20T08:52:11.882Z,5.60
2022-08-20T08:54:43.687Z,5.93
2022-08-20T08:57:13.097Z,7.00
2022-08-20T08:59:52.198Z,5.63
2022-08-20T09:02:31.743Z,8.33
2022-08-20T09:05:02.669Z,9.07
2022-08-20T09:07:35.119Z,7.57
2022-08-20T09:10:03.802Z,4.87
2022-08-20T09:12:33.118Z,5.83
2022-08-20T09:15:01.389Z,3.40
2022-08-20T09:17:29.385Z,5.13
2022-08-20T09:19:57.368Z,4.40
2022-08-20T09:22:26.425Z,4.27
2022-08-20T09:24:54.473Z,3.90
2022-08-20T09:27:22.283Z,5.43
2022-08-20T09:29:53.396Z,6.03
2022-08-20T09:32:24.338Z,4.80
2022-08-20T09:34:56.770Z,3.40
2022-08-20T09:37:26.406Z,4.07
2022-08-20T09:39:54.591Z,4.07
2022-08-20T09:42:28.006Z,4.93
2022-08-20T09:44:57.489Z,5.83
2022-08-20T09:47:25.682Z,7.50
2022-08-20T09:49:53.861Z,3.77
2022-08-20T09:52:24.333Z,4.20
2022-08-20T09:54:54.778Z,4.20
2022-08-20T09:57:23.468Z,5.10
2022-08-20T09:59:58.052Z,6.20
2022-08-20T10:02:26.265Z,4.40
2022-08-20T10:04:54.212Z,6.47
2022-08-20T10:07:22.130Z,5.33
2022-08-20T10:09:49.959Z,5.27
2022-08-20T10:12:17.841Z,5.70
2022-08-20T10:14:45.747Z,5.13
2022-08-20T10:17:15.036Z,4.17
2022-08-20T10:19:42.972Z,3.83
2022-08-20T10:22:10.915Z,4.07
2022-08-20T10:24:38.884Z,5.77
2022-08-20T10:27:07.199Z,4.43
2022-08-20T10:29:35.078Z,6.37
2022-08-20T10:32:11.960Z,5.70
2022-08-20T10:34:42.818Z,3.97
2022-08-20T10:37:11.418Z,4.40
2022-08-20T10:39:39.287Z,6.13
2022-08-20T10:42:07.538Z,3.97
2022-08-20T10:44:35.364Z,4.77
2022-08-20T10:47:19.362Z,5.63
2022-08-20T10:49:50.050Z,4.13
2022-08-20T10:52:18.079Z,7.00
2022-08-20T10:54:46.281Z,4.53
2022-08-20T10:57:16.175Z,5.27
2022-08-20T10:59:46.557Z,3.53
2022-08-20T11:02:14.604Z,4.43
2022-08-20T11:04:42.577Z,5.03
2022-08-20T11:07:16.920Z,5.07
2022-08-20T11:09:46.086Z,5.10
2022-08-20T11:12:13.997Z,5.43
2022-08-20T11:14:42.436Z,5.67
2022-08-20T11:17:10.917Z,7.57
2022-08-20T11:19:43.174Z,9.33
2022-08-20T11:22:12.085Z,6.40
2022-08-20T11:24:41.234Z,6.23
2022-08-20T11:27:10.341Z,4.53
2022-08-20T11:29:39.014Z,6.17
2022-08-20T11:32:07.575Z,6.23
2022-08-20T11:34:35.442Z,4.17
2022-08-20T11:37:03.308Z,6.47
2022-08-20T11:39:31.121Z,9.03
2022-08-20T11:42:01.731Z,5.03
2022-08-20T11:44:29.575Z,6.37
2022-08-20T11:46:59.829Z,7.90
2022-08-20T11:49:27.685Z,6.97
2022-08-20T11:51:55.442Z,8.10
2022-08-20T11:54:23.320Z,5.80
2022-08-20T11:56:51.280Z,6.93
2022-08-20T11:59:20.866Z,5.43
2022-08-20T12:02:02.730Z,5.63
2022-08-20T12:04:33.569Z,6.17
2022-08-20T12:07:10.395Z,8.07
2022-08-20T12:09:40.101Z,6.07
2022-08-20T12:12:21.228Z,4.67
2022-08-20T12:14:50.574Z,5.87
2022-08-20T12:17:21.454Z,7.13
2022-08-20T12:19:49.340Z,6.17
2022-08-20T12:22:24.931Z,6.17
2022-08-20T12:24:54.388Z,6.20
2022-08-20T12:27:24.989Z,6.23
2022-08-20T12:29:56.013Z,8.47
2022-08-20T12:32:26.183Z,6.80
2022-08-20T12:34:54.994Z,7.87
2022-08-20T12:37:26.444Z,6.23
2022-08-20T12:39:56.743Z,5.97
2022-08-20T12:42:25.375Z,4.10
2022-08-20T12:44:54.833Z,3.63
2022-08-20T12:47:25.030Z,4.40
2022-08-20T12:49:56.286Z,5.50
2022-08-20T12:52:26.814Z,5.70
2022-08-20T12:54:55.152Z,7.07
2022-08-20T12:57:28.680Z,3.40
2022-08-20T12:59:59.029Z,5.27
2022-08-20T13:02:27.698Z,6.30
2022-08-20T13:04:55.915Z,4.53
2022-08-20T13:07:26.364Z,4.30
2022-08-20T13:09:55.690Z,3.63
2022-08-20T13:12:23.537Z,6.00
2022-08-20T13:14:51.389Z,4.37
2022-08-20T13:17:33.631Z,4.17
2022-08-20T13:20:10.320Z,3.30
2022-08-20T13:22:38.255Z,6.33
2022-08-20T13:25:07.610Z,4.03
2022-08-20T13:27:38.228Z,2.70
2022-08-20T13:30:08.572Z,5.20
2022-08-20T13:32:37.880Z,5.47
2022-08-20T13:35:06.414Z,5.67
2022-08-20T13:37:34.557Z,3.30
2022-08-20T13:40:02.947Z,3.90
2022-08-20T13:42:30.926Z,5.87
2022-08-20T13:44:58.752Z,4.23
2022-08-20T13:47:28.521Z,6.87
2022-08-20T13:49:59.469Z,3.43
2022-08-20T13:52:28.346Z,3.87
2022-08-20T13:54:56.170Z,6.07
2022-08-20T13:57:25.637Z,4.93
2022-08-20T13:59:55.334Z,4.47
2022-08-20T14:02:24.129Z,3.73
2022-08-20T14:04:52.741Z,3.40
2022-08-20T14:07:26.786Z,5.33
2022-08-20T14:10:00.212Z,3.97
2022-08-20T14:12:30.746Z,4.67
2022-08-20T14:14:59.339Z,3.77
2022-08-20T14:17:29.061Z,2.83
2022-08-20T14:20:01.312Z,3.67
2022-08-20T14:22:31.638Z,4.47
2022-08-20T14:25:03.291Z,5.33
2022-08-20T14:27:33.327Z,5.30
2022-08-20T14:30:01.644Z,3.93
2022-08-20T14:32:29.634Z,5.63
2022-08-20T14:34:59.278Z,4.97
2022-08-20T14:37:29.053Z,2.13
2022-08-20T14:40:00.376Z,4.33
2022-08-20T14:42:29.789Z,2.77
2022-08-20T14:44:58.943Z,5.57
2022-08-20T14:47:28.691Z,3.33
2022-08-20T14:50:01.990Z,4.93
2022-08-20T14:52:31.286Z,5.83
2022-08-20T14:55:00.442Z,2.77
2022-08-20T14:57:28.302Z,5.80
2022-08-20T14:59:56.142Z,3.57
2022-08-20T15:02:24.081Z,3.10
2022-08-20T15:04:54.363Z,4.23
2022-08-20T15:07:26.807Z,5.83
2022-08-20T15:09:55.507Z,3.67
2022-08-20T15:12:25.157Z,3.23
2022-08-20T15:14:53.064Z,3.43
2022-08-20T15:17:24.312Z,3.57
2022-08-20T15:19:52.377Z,2.83
2022-08-20T15:22:21.160Z,5.67
2022-08-20T15:24:49.289Z,3.97
2022-08-20T15:27:23.460Z,3.87
2022-08-20T15:29:54.180Z,2.53
2022-08-20T15:32:22.543Z,4.93
2022-08-20T15:34:50.672Z,4.80
2022-08-20T15:37:21.561Z,3.57
2022-08-20T15:39:50.248Z,8.03
2022-08-20T15:42:19.524Z,5.30
2022-08-20T15:44:47.902Z,6.67
2022-08-20T15:47:24.292Z,6.83
2022-08-20T15:49:55.938Z,7.27
2022-08-20T15:52:25.873Z,4.67
2022-08-20T15:54:55.138Z,3.13
2022-08-20T15:57:42.533Z,3.70
2022-08-20T16:00:15.501Z,6.43
2022-08-20T16:03:20.534Z,8.03
2022-08-20T16:05:53.476Z,5.43
2022-08-20T16:08:36.005Z,7.13
2022-08-20T16:11:13.526Z,6.03
2022-08-20T16:13:46.580Z,3.87
2022-08-20T16:16:18.637Z,5.13
2022-08-20T16:18:51.868Z,3.87
2022-08-20T16:21:27.410Z,4.63
2022-08-20T16:23:56.555Z,4.87
2022-08-20T16:26:53.245Z,3.83
2022-08-20T16:29:26.335Z,3.53
2022-08-20T16:31:57.067Z,3.40
2022-08-20T16:34:34.372Z,5.33
2022-08-20T16:37:10.101Z,4.13
2022-08-20T16:39:45.722Z,3.77
2022-08-20T16:42:21.681Z,5.20
2022-08-20T16:44:54.008Z,5.17
2022-08-20T16:47:26.254Z,6.03
2022-08-20T16:50:00.647Z,5.77
2022-08-20T16:52:29.177Z,5.87
2022-08-20T16:54:57.687Z,2.70
2022-08-20T16:57:28.486Z,6.33
2022-08-20T16:59:59.576Z,6.00
2022-08-20T17:02:27.958Z,5.17
2022-08-20T17:05:01.969Z,5.23
2022-08-20T17:07:46.043Z,5.53
2022-08-20T17:10:21.186Z,4.00
2022-08-20T17:12:54.898Z,5.57
2022-08-20T17:15:26.532Z,4.87
2022-08-20T17:17:55.842Z,7.20
2022-08-20T17:20:28.043Z,5.17
2022-08-20T17:23:12.166Z,5.13
2022-08-20T17:25:39.990Z,7.33
2022-08-20T17:28:16.423Z,5.27
2022-08-20T17:30:46.109Z,6.40
2022-08-20T17:33:25.198Z,4.00
2022-08-20T17:35:56.532Z,5.57
2022-08-20T17:38:29.000Z,5.20
2022-08-20T17:41:00.790Z,4.83
2022-08-20T17:43:31.192Z,6.07
2022-08-20T17:46:01.884Z,4.73
2022-08-20T17:48:35.358Z,4.70
2022-08-20T17:51:14.659Z,6.13
2022-08-20T17:53:45.044Z,4.33
2022-08-20T17:56:19.505Z,5.43
2022-08-20T17:58:54.052Z,6.40
2022-08-20T18:01:23.986Z,3.60
2022-08-20T18:03:53.582Z,6.00
2022-08-20T18:06:30.782Z,3.63
2022-08-20T18:09:04.822Z,3.30
2022-08-20T18:11:37.517Z,5.47
2022-08-20T18:14:28.018Z,5.70
2022-08-20T18:17:06.012Z,4.70
2022-08-20T18:20:06.176Z,7.00
2022-08-20T18:22:44.685Z,6.23
2022-08-20T18:25:29.154Z,6.07
2022-08-20T18:28:02.804Z,4.90
2022-08-20T18:30:31.342Z,4.50
2022-08-20T18:33:05.885Z,4.73
2022-08-20T18:35:37.332Z,3.80
2022-08-20T18:38:28.571Z,6.00
2022-08-20T18:41:08.215Z,6.00
2022-08-20T18:43:36.494Z,5.00
2022-08-20T18:46:21.578Z,4.37
2022-08-20T18:48:56.030Z,4.50
2022-08-20T18:51:33.276Z,5.47
2022-08-20T18:54:02.526Z,4.23
2022-08-20T18:56:38.133Z,5.37
2022-08-20T18:59:11.569Z,5.30
2022-08-20T19:01:41.275Z,3.20
2022-08-20T19:04:25.753Z,3.30
2022-08-20T19:06:57.895Z,4.23
2022-08-20T19:09:50.426Z,3.60
2022-08-20T19:12:30.230Z,5.50
2022-08-20T19:15:02.293Z,5.87
2022-08-20T19:17:43.771Z,2.83
2022-08-20T19:20:16.541Z,6.33
2022-08-20T19:22:46.164Z,5.45
2022-08-20T19:25:28.973Z,5.30
2022-08-20T19:27:58.073Z,4.27
2022-08-20T19:30:35.931Z,3.17
2022-08-20T19:33:04.429Z,8.10
2022-08-20T19:35:32.287Z,4.13
2022-08-20T19:38:02.129Z,4.03
2022-08-20T19:40:35.165Z,3.07
2022-08-20T19:43:12.866Z,3.93
2022-08-20T19:45:45.750Z,4.77
2022-08-20T19:48:29.944Z,5.77
2022-08-20T19:51:06.371Z,4.70
2022-08-20T19:53:37.050Z,4.17
2022-08-20T19:56:11.269Z,3.60
2022-08-20T19:58:39.199Z,4.30
2022-08-20T20:01:18.124Z,5.20
2022-08-20T20:03:58.330Z,4.53
2022-08-20T20:06:27.426Z,3.57
2022-08-20T20:08:58.875Z,3.07
2022-08-20T20:11:37.443Z,4.03
2022-08-20T20:14:08.270Z,5.43
2022-08-20T20:16:38.013Z,5.97
2022-08-20T20:19:26.774Z,4.20
2022-08-20T20:22:08.479Z,3.00
2022-08-20T20:24:57.589Z,5.00
2022-08-20T20:27:28.744Z,2.83
2022-08-20T20:30:01.480Z,5.50
2022-08-20T20:32:30.442Z,4.00
2022-08-20T20:35:00.577Z,4.97
2022-08-20T20:37:49.127Z,6.43
2022-08-20T20:40:24.345Z,4.90
2022-08-20T20:43:02.064Z,3.03
2022-08-20T20:45:34.758Z,4.20
2022-08-20T20:48:12.768Z,2.93
2022-08-20T20:50:40.791Z,4.60
2022-08-20T20:53:09.017Z,3.07
2022-08-20T20:55:39.189Z,3.80
2022-08-20T20:58:08.432Z,4.30
2022-08-20T21:00:36.330Z,3.40
2022-08-20T21:03:04.446Z,2.70
2022-08-20T21:05:33.981Z,3.77
2022-08-20T21:08:04.851Z,5.20
2022-08-20T21:10:37.522Z,3.20
2022-08-20T21:13:07.954Z,4.93
2022-08-20T21:15:39.375Z,3.13
2022-08-20T21:18:09.229Z,3.80
2022-08-20T21:20:37.881Z,3.23
2022-08-20T21:23:05.832Z,3.50
2022-08-20T21:25:35.440Z,2.67
2022-08-20T21:28:04.161Z,2.60
2022-08-20T21:30:33.650Z,4.53
2022-08-20T21:33:03.021Z,3.97
2022-08-20T21:35:30.841Z,5.43
2022-08-20T21:37:58.820Z,6.30
2022-08-20T21:40:28.454Z,4.33
2022-08-20T21:42:57.326Z,2.43
2022-08-20T21:45:28.268Z,5.50
2022-08-20T21:47:57.143Z,4.07
2022-08-20T21:50:27.188Z,4.30
2022-08-20T21:52:59.496Z,7.80
2022-08-20T21:55:30.076Z,3.73
2022-08-20T21:57:58.681Z,2.57
2022-08-20T22:00:49.847Z,6.27
2022-08-20T22:03:20.056Z,6.23
2022-08-20T22:05:49.894Z,3.97
2022-08-20T22:08:18.469Z,4.67
2022-08-20T22:10:47.062Z,4.23
2022-08-20T22:13:16.306Z,5.03
2022-08-20T22:15:44.162Z,7.33
2022-08-20T22:18:12.085Z,4.73
2022-08-20T22:20:41.281Z,4.70
2022-08-20T22:23:10.883Z,5.50
2022-08-20T22:25:38.913Z,3.13
2022-08-20T22:28:07.012Z,6.77
2022-08-20T22:30:38.332Z,4.83
2022-08-20T22:33:11.341Z,3.33
2022-08-20T22:35:43.587Z,4.67
2022-08-20T22:38:12.984Z,3.97
2022-08-20T22:40:40.764Z,4.00
2022-08-20T22:43:08.934Z,7.67
2022-08-20T22:45:37.174Z,4.13
2022-08-20T22:48:07.629Z,5.13
2022-08-20T22:50:37.879Z,4.73
2022-08-20T22:53:07.185Z,3.83
2022-08-20T22:55:38.358Z,4.20
2022-08-20T22:58:07.080Z,5.00
2022-08-20T23:00:36.022Z,4.60
2022-08-20T23:03:05.000Z,9.70
2022-08-20T23:05:36.233Z,3.47
2022-08-20T23:08:05.822Z,3.00
2022-08-20T23:10:36.996Z,5.93
2022-08-20T23:13:05.544Z,6.47
2022-08-20T23:15:35.756Z,4.87
2022-08-20T23:18:08.798Z,3.13
2022-08-20T23:20:36.679Z,3.73
2022-08-20T23:23:05.149Z,3.67
2022-08-20T23:25:33.351Z,4.23
2022-08-20T23:28:04.231Z,4.30
2022-08-20T23:30:32.522Z,4.07
2022-08-20T23:33:01.608Z,3.57
2022-08-20T23:35:32.044Z,5.00
2022-08-20T23:38:01.467Z,3.53
2022-08-20T23:40:32.061Z,4.70
2022-08-20T23:43:00.307Z,5.13
2022-08-20T23:45:30.591Z,4.67
2022-08-20T23:47:58.432Z,3.77
2022-08-20T23:50:29.175Z,4.60
2022-08-20T23:52:57.715Z,4.77
2022-08-20T23:55:26.125Z,4.47
2022-08-20T23:57:54.370Z,3.87
